sensor_id;sensor_type;location;lat;lon;timestamp;pressure;altitude;pressure_sealevel;temperature;humidity
61676;BME280;47574;52.090;5.244;2023-03-19T00:00:08;101009.0;;;17.7;54.22
61676;BME280;47574;52.090;5.244;2023-03-19T00:01:44;101012.0;;;17.53;54.76
61676;BME280;47574;52.090;5.244;2023-03-19T00:04:56;101011.0;;;17.53;54.68
61676;BME280;47574;52.090;5.244;2023-03-19T00:06:33;101016.0;;;17.36;55.59
61676;BME280;47574;52.090;5.244;2023-03-19T00:08:10;101017.0;;;17.55;54.81
61676;BME280;47574;52.090;5.244;2023-03-19T00:11:22;101016.0;;;17.46;55.06
61676;BME280;47574;52.090;5.244;2023-03-19T00:12:58;101013.0;;;17.3;55.54
61676;BME280;47574;52.090;5.244;2023-03-19T00:14:34;101014.0;;;17.54;55.35
61676;BME280;47574;52.090;5.244;2023-03-19T00:17:46;101021.0;;;17.29;55.74
61676;BME280;47574;52.090;5.244;2023-03-19T00:19:22;101025.0;;;17.2;56.23
61676;BME280;47574;52.090;5.244;2023-03-19T00:24:11;101031.0;;;17.23;56.29
61676;BME280;47574;52.090;5.244;2023-03-19T00:25:47;101035.0;;;17.12;56.29
61676;BME280;47574;52.090;5.244;2023-03-19T00:27:23;101037.0;;;17.06;56.45
61676;BME280;47574;52.090;5.244;2023-03-19T00:29:00;101034.0;;;17.22;56.5
61676;BME280;47574;52.090;5.244;2023-03-19T00:32:12;101032.0;;;17.27;55.9
61676;BME280;47574;52.090;5.244;2023-03-19T00:33:49;101034.0;;;17.3;55.84
61676;BME280;47574;52.090;5.244;2023-03-19T00:35:26;101036.0;;;17.25;56.05
61676;BME280;47574;52.090;5.244;2023-03-19T00:38:39;101036.0;;;16.93;56.72
61676;BME280;47574;52.090;5.244;2023-03-19T00:40:15;101040.0;;;17.14;56.68
61676;BME280;47574;52.090;5.244;2023-03-19T00:41:52;101038.0;;;17.0;56.76
61676;BME280;47574;52.090;5.244;2023-03-19T00:45:05;101040.0;;;17.05;56.48
61676;BME280;47574;52.090;5.244;2023-03-19T00:46:43;101035.0;;;17.32;56.12
61676;BME280;47574;52.090;5.244;2023-03-19T00:48:20;101041.0;;;17.11;56.8
61676;BME280;47574;52.090;5.244;2023-03-19T00:49:56;101041.0;;;17.11;56.56
61676;BME280;47574;52.090;5.244;2023-03-19T00:53:09;101042.0;;;16.96;56.7
61676;BME280;47574;52.090;5.244;2023-03-19T00:54:46;101041.0;;;17.11;56.7
61676;BME280;47574;52.090;5.244;2023-03-19T00:56:22;101039.0;;;17.22;56.29
61676;BME280;47574;52.090;5.244;2023-03-19T00:59:34;101037.0;;;16.95;56.51
61676;BME280;47574;52.090;5.244;2023-03-19T01:01:13;101038.0;;;17.13;56.4
61676;BME280;47574;52.090;5.244;2023-03-19T01:04:27;101042.0;;;16.9;56.68
61676;BME280;47574;52.090;5.244;2023-03-19T01:07:41;101043.0;;;16.98;56.87
61676;BME280;47574;52.090;5.244;2023-03-19T01:09:18;101046.0;;;17.04;56.58
61676;BME280;47574;52.090;5.244;2023-03-19T01:12:38;101041.0;;;17.0;56.65
61676;BME280;47574;52.090;5.244;2023-03-19T01:14:15;101041.0;;;16.95;56.72
61676;BME280;47574;52.090;5.244;2023-03-19T01:15:52;101043.0;;;16.97;56.64
61676;BME280;47574;52.090;5.244;2023-03-19T01:17:28;101046.0;;;16.95;56.82
61676;BME280;47574;52.090;5.244;2023-03-19T01:20:42;101048.0;;;16.84;56.61
61676;BME280;47574;52.090;5.244;2023-03-19T01:22:18;101049.0;;;17.02;56.62
61676;BME280;47574;52.090;5.244;2023-03-19T01:23:55;101049.0;;;17.07;56.14
61676;BME280;47574;52.090;5.244;2023-03-19T01:25:32;101047.0;;;17.16;56.05
61676;BME280;47574;52.090;5.244;2023-03-19T01:28:47;101048.0;;;17.0;56.7
61676;BME280;47574;52.090;5.244;2023-03-19T01:30:23;101048.0;;;17.0;56.53
61676;BME280;47574;52.090;5.244;2023-03-19T01:31:59;101053.0;;;17.09;56.64
61676;BME280;47574;52.090;5.244;2023-03-19T01:35:12;101052.0;;;17.11;56.54
61676;BME280;47574;52.090;5.244;2023-03-19T01:36:48;101050.0;;;17.16;56.71
61676;BME280;47574;52.090;5.244;2023-03-19T01:38:25;101049.0;;;17.11;56.78
61676;BME280;47574;52.090;5.244;2023-03-19T01:40:02;101047.0;;;17.18;56.29
61676;BME280;47574;52.090;5.244;2023-03-19T01:43:18;101045.0;;;16.79;56.88
61676;BME280;47574;52.090;5.244;2023-03-19T01:44:55;101043.0;;;17.09;56.68
61676;BME280;47574;52.090;5.244;2023-03-19T01:46:33;101046.0;;;17.13;56.38
61676;BME280;47574;52.090;5.244;2023-03-19T01:49:59;101046.0;;;17.0;56.73
61676;BME280;47574;52.090;5.244;2023-03-19T01:51:39;101051.0;;;16.95;56.8
61676;BME280;47574;52.090;5.244;2023-03-19T01:53:18;101048.0;;;17.25;56.24
61676;BME280;47574;52.090;5.244;2023-03-19T01:54:57;101047.0;;;17.14;56.36
61676;BME280;47574;52.090;5.244;2023-03-19T01:58:16;101049.0;;;17.16;56.48
61676;BME280;47574;52.090;5.244;2023-03-19T01:59:55;101047.0;;;16.95;56.83
61676;BME280;47574;52.090;5.244;2023-03-19T02:01:38;101045.0;;;16.95;56.51
61676;BME280;47574;52.090;5.244;2023-03-19T02:03:20;101048.0;;;16.96;56.83
61676;BME280;47574;52.090;5.244;2023-03-19T02:06:42;101050.0;;;17.06;56.98
61676;BME280;47574;52.090;5.244;2023-03-19T02:08:20;101055.0;;;17.05;56.74
61676;BME280;47574;52.090;5.244;2023-03-19T02:10:00;101053.0;;;16.89;56.92
61676;BME280;47574;52.090;5.244;2023-03-19T02:11:37;101053.0;;;16.81;57.64
61676;BME280;47574;52.090;5.244;2023-03-19T02:14:51;101056.0;;;16.87;57.68
61676;BME280;47574;52.090;5.244;2023-03-19T02:16:28;101058.0;;;16.93;57.36
61676;BME280;47574;52.090;5.244;2023-03-19T02:18:05;101065.0;;;16.93;57.44
61676;BME280;47574;52.090;5.244;2023-03-19T02:21:26;101062.0;;;17.07;56.83
61676;BME280;47574;52.090;5.244;2023-03-19T02:23:09;101058.0;;;16.95;57.02
61676;BME280;47574;52.090;5.244;2023-03-19T02:24:52;101058.0;;;17.02;57.07
61676;BME280;47574;52.090;5.244;2023-03-19T02:26:32;101056.0;;;17.02;56.76
61676;BME280;47574;52.090;5.244;2023-03-19T02:28:09;101057.0;;;16.89;57.25
61676;BME280;47574;52.090;5.244;2023-03-19T02:31:22;101055.0;;;16.98;57.2
61676;BME280;47574;52.090;5.244;2023-03-19T02:32:59;101056.0;;;16.78;57.32
61676;BME280;47574;52.090;5.244;2023-03-19T02:34:38;101057.0;;;16.88;57.03
61676;BME280;47574;52.090;5.244;2023-03-19T02:37:54;101057.0;;;16.93;56.87
61676;BME280;47574;52.090;5.244;2023-03-19T02:39:33;101058.0;;;16.82;57.2
61676;BME280;47574;52.090;5.244;2023-03-19T02:41:14;101062.0;;;16.86;57.27
61676;BME280;47574;52.090;5.244;2023-03-19T02:42:50;101066.0;;;16.89;57.34
61676;BME280;47574;52.090;5.244;2023-03-19T02:46:06;101063.0;;;16.84;57.29
61676;BME280;47574;52.090;5.244;2023-03-19T02:47:44;101063.0;;;16.73;57.6
61676;BME280;47574;52.090;5.244;2023-03-19T02:49:20;101062.0;;;16.68;57.62
61676;BME280;47574;52.090;5.244;2023-03-19T02:52:33;101062.0;;;16.68;57.6
61676;BME280;47574;52.090;5.244;2023-03-19T02:54:11;101067.0;;;16.75;57.53
61676;BME280;47574;52.090;5.244;2023-03-19T02:55:49;101068.0;;;16.64;57.63
61676;BME280;47574;52.090;5.244;2023-03-19T02:57:26;101072.0;;;16.9;57.51
61676;BME280;47574;52.090;5.244;2023-03-19T03:00:40;101070.0;;;16.77;57.48
61676;BME280;47574;52.090;5.244;2023-03-19T03:02:17;101072.0;;;16.82;57.48
61676;BME280;47574;52.090;5.244;2023-03-19T03:03:54;101069.0;;;16.61;57.32
61676;BME280;47574;52.090;5.244;2023-03-19T03:07:09;101070.0;;;16.66;57.91
61676;BME280;47574;52.090;5.244;2023-03-19T03:08:45;101068.0;;;16.5;57.79
61676;BME280;47574;52.090;5.244;2023-03-19T03:10:23;101067.0;;;16.46;57.99
61676;BME280;47574;52.090;5.244;2023-03-19T03:13:36;101070.0;;;16.52;58.19
61676;BME280;47574;52.090;5.244;2023-03-19T03:15:12;101071.0;;;16.56;57.76
61676;BME280;47574;52.090;5.244;2023-03-19T03:16:48;101072.0;;;16.65;57.62
61676;BME280;47574;52.090;5.244;2023-03-19T03:18:25;101069.0;;;16.75;58.06
61676;BME280;47574;52.090;5.244;2023-03-19T03:21:38;101070.0;;;16.71;58.04
61676;BME280;47574;52.090;5.244;2023-03-19T03:23:15;101070.0;;;16.45;57.98
61676;BME280;47574;52.090;5.244;2023-03-19T03:24:51;101076.0;;;16.61;57.53
61676;BME280;47574;52.090;5.244;2023-03-19T03:28:03;101069.0;;;16.59;57.91
61676;BME280;47574;52.090;5.244;2023-03-19T03:29:40;101067.0;;;16.48;57.83
61676;BME280;47574;52.090;5.244;2023-03-19T03:31:16;101070.0;;;16.52;57.58
61676;BME280;47574;52.090;5.244;2023-03-19T03:34:29;101071.0;;;16.41;57.91
61676;BME280;47574;52.090;5.244;2023-03-19T03:36:06;101073.0;;;16.53;57.74
61676;BME280;47574;52.090;5.244;2023-03-19T03:37:43;101075.0;;;16.54;58.36
61676;BME280;47574;52.090;5.244;2023-03-19T03:39:19;101076.0;;;16.77;57.82
61676;BME280;47574;52.090;5.244;2023-03-19T03:42:32;101080.0;;;16.66;57.66
61676;BME280;47574;52.090;5.244;2023-03-19T03:44:09;101080.0;;;16.63;57.89
61676;BME280;47574;52.090;5.244;2023-03-19T03:45:46;101084.0;;;16.7;57.55
61676;BME280;47574;52.090;5.244;2023-03-19T03:48:59;101085.0;;;16.72;57.54
61676;BME280;47574;52.090;5.244;2023-03-19T03:50:37;101085.0;;;16.62;57.94
61676;BME280;47574;52.090;5.244;2023-03-19T03:52:14;101084.0;;;16.61;57.91
61676;BME280;47574;52.090;5.244;2023-03-19T03:55:26;101081.0;;;16.61;57.84
61676;BME280;47574;52.090;5.244;2023-03-19T03:57:03;101080.0;;;16.63;57.59
61676;BME280;47574;52.090;5.244;2023-03-19T03:58:40;101074.0;;;16.71;57.58
61676;BME280;47574;52.090;5.244;2023-03-19T04:00:17;101072.0;;;16.59;57.99
61676;BME280;47574;52.090;5.244;2023-03-19T04:03:29;101076.0;;;16.65;57.73
61676;BME280;47574;52.090;5.244;2023-03-19T04:05:07;101076.0;;;16.66;57.58
61676;BME280;47574;52.090;5.244;2023-03-19T04:06:43;101080.0;;;16.56;57.9
61676;BME280;47574;52.090;5.244;2023-03-19T04:09:56;101078.0;;;16.57;57.5
61676;BME280;47574;52.090;5.244;2023-03-19T04:11:33;101080.0;;;16.53;57.35
61676;BME280;47574;52.090;5.244;2023-03-19T04:13:11;101076.0;;;16.57;57.85
61676;BME280;47574;52.090;5.244;2023-03-19T04:16:23;101073.0;;;16.48;57.8
61676;BME280;47574;52.090;5.244;2023-03-19T04:18:01;101073.0;;;16.31;57.99
61676;BME280;47574;52.090;5.244;2023-03-19T04:19:38;101077.0;;;16.37;57.96
61676;BME280;47574;52.090;5.244;2023-03-19T04:21:14;101074.0;;;16.46;57.52
61676;BME280;47574;52.090;5.244;2023-03-19T04:24:27;101080.0;;;16.45;57.69
61676;BME280;47574;52.090;5.244;2023-03-19T04:26:05;101078.0;;;16.41;57.72
61676;BME280;47574;52.090;5.244;2023-03-19T04:27:41;101080.0;;;16.41;57.66
61676;BME280;47574;52.090;5.244;2023-03-19T04:30:58;101076.0;;;16.43;57.32
61676;BME280;47574;52.090;5.244;2023-03-19T04:32:35;101075.0;;;16.18;57.89
61676;BME280;47574;52.090;5.244;2023-03-19T04:34:11;101073.0;;;16.25;57.75
61676;BME280;47574;52.090;5.244;2023-03-19T04:35:47;101073.0;;;16.31;57.62
61676;BME280;47574;52.090;5.244;2023-03-19T04:38:59;101069.0;;;16.23;57.64
61676;BME280;47574;52.090;5.244;2023-03-19T04:40:35;101077.0;;;16.07;58.5
61676;BME280;47574;52.090;5.244;2023-03-19T04:42:11;101081.0;;;16.12;58.15
61676;BME280;47574;52.090;5.244;2023-03-19T04:45:25;101082.0;;;16.09;57.73
61676;BME280;47574;52.090;5.244;2023-03-19T04:47:02;101081.0;;;16.09;58.25
61676;BME280;47574;52.090;5.244;2023-03-19T04:48:38;101077.0;;;15.88;58.43
61676;BME280;47574;52.090;5.244;2023-03-19T04:51:50;101078.0;;;15.99;57.75
61676;BME280;47574;52.090;5.244;2023-03-19T04:53:26;101075.0;;;16.04;58.09
61676;BME280;47574;52.090;5.244;2023-03-19T04:55:06;101087.0;;;15.98;57.45
61676;BME280;47574;52.090;5.244;2023-03-19T04:56:43;101088.0;;;15.9;57.45
61676;BME280;47574;52.090;5.244;2023-03-19T04:59:57;101090.0;;;15.89;57.81
61676;BME280;47574;52.090;5.244;2023-03-19T05:01:33;101097.0;;;15.9;57.98
61676;BME280;47574;52.090;5.244;2023-03-19T05:03:09;101105.0;;;15.93;57.68
61676;BME280;47574;52.090;5.244;2023-03-19T05:06:22;101107.0;;;15.98;57.35
61676;BME280;47574;52.090;5.244;2023-03-19T05:07:58;101109.0;;;15.76;57.49
61676;BME280;47574;52.090;5.244;2023-03-19T05:09:34;101109.0;;;15.81;57.53
61676;BME280;47574;52.090;5.244;2023-03-19T05:12:47;101112.0;;;15.69;58.03
61676;BME280;47574;52.090;5.244;2023-03-19T05:14:24;101112.0;;;15.89;57.76
61676;BME280;47574;52.090;5.244;2023-03-19T05:16:00;101116.0;;;16.04;57.17
61676;BME280;47574;52.090;5.244;2023-03-19T05:19:13;101116.0;;;15.98;57.22
61676;BME280;47574;52.090;5.244;2023-03-19T05:20:49;101127.0;;;15.7;57.78
61676;BME280;47574;52.090;5.244;2023-03-19T05:22:26;101125.0;;;15.82;57.5
61676;BME280;47574;52.090;5.244;2023-03-19T05:24:04;101127.0;;;15.69;57.86
61676;BME280;47574;52.090;5.244;2023-03-19T05:27:16;101126.0;;;15.75;57.36
61676;BME280;47574;52.090;5.244;2023-03-19T05:28:54;101130.0;;;15.88;57.14
61676;BME280;47574;52.090;5.244;2023-03-19T05:30:30;101134.0;;;15.71;57.53
61676;BME280;47574;52.090;5.244;2023-03-19T05:33:44;101136.0;;;15.68;57.21
61676;BME280;47574;52.090;5.244;2023-03-19T05:35:21;101135.0;;;15.79;57.37
61676;BME280;47574;52.090;5.244;2023-03-19T05:36:57;101136.0;;;15.55;57.42
61676;BME280;47574;52.090;5.244;2023-03-19T05:40:11;101135.0;;;15.52;58.15
61676;BME280;47574;52.090;5.244;2023-03-19T05:41:48;101140.0;;;15.38;57.76
61676;BME280;47574;52.090;5.244;2023-03-19T05:43:25;101148.0;;;15.32;57.67
61676;BME280;47574;52.090;5.244;2023-03-19T05:45:02;101148.0;;;15.54;58.16
61676;BME280;47574;52.090;5.244;2023-03-19T05:48:16;101153.0;;;15.27;58.0
61676;BME280;47574;52.090;5.244;2023-03-19T05:49:52;101155.0;;;15.21;58.69
61676;BME280;47574;52.090;5.244;2023-03-19T05:51:29;101160.0;;;15.21;58.64
61676;BME280;47574;52.090;5.244;2023-03-19T05:54:44;101165.0;;;15.24;58.28
61676;BME280;47574;52.090;5.244;2023-03-19T05:56:20;101166.0;;;15.48;58.23
61676;BME280;47574;52.090;5.244;2023-03-19T05:57:56;101168.0;;;15.55;58.07
61676;BME280;47574;52.090;5.244;2023-03-19T05:59:33;101169.0;;;15.73;57.94
61676;BME280;47574;52.090;5.244;2023-03-19T06:02:46;101167.0;;;15.62;57.52
61676;BME280;47574;52.090;5.244;2023-03-19T06:04:22;101162.0;;;15.44;58.0
61676;BME280;47574;52.090;5.244;2023-03-19T06:05:59;101170.0;;;15.59;58.06
61676;BME280;47574;52.090;5.244;2023-03-19T06:09:12;101165.0;;;15.51;57.91
61676;BME280;47574;52.090;5.244;2023-03-19T06:10:49;101168.0;;;15.58;57.59
61676;BME280;47574;52.090;5.244;2023-03-19T06:12:27;101170.0;;;15.63;57.9
61676;BME280;47574;52.090;5.244;2023-03-19T06:15:41;101175.0;;;15.54;58.12
61676;BME280;47574;52.090;5.244;2023-03-19T06:17:18;101174.0;;;15.2;58.18
61676;BME280;47574;52.090;5.244;2023-03-19T06:18:54;101182.0;;;15.38;58.12
61676;BME280;47574;52.090;5.244;2023-03-19T06:20:31;101181.0;;;14.93;58.7
61676;BME280;47574;52.090;5.244;2023-03-19T06:23:44;101181.0;;;14.84;59.45
61676;BME280;47574;52.090;5.244;2023-03-19T06:25:20;101188.0;;;15.28;58.37
61676;BME280;47574;52.090;5.244;2023-03-19T06:26:57;101191.0;;;15.2;58.33
61676;BME280;47574;52.090;5.244;2023-03-19T06:30:12;101189.0;;;14.75;59.08
61676;BME280;47574;52.090;5.244;2023-03-19T06:31:49;101188.0;;;14.97;59.07
61676;BME280;47574;52.090;5.244;2023-03-19T06:33:25;101192.0;;;14.68;59.51
61676;BME280;47574;52.090;5.244;2023-03-19T06:35:02;101196.0;;;14.75;59.3
61676;BME280;47574;52.090;5.244;2023-03-19T06:38:16;101195.0;;;14.9;59.02
61676;BME280;47574;52.090;5.244;2023-03-19T06:39:53;101197.0;;;15.01;59.0
61676;BME280;47574;52.090;5.244;2023-03-19T06:41:29;101197.0;;;15.17;58.48
61676;BME280;47574;52.090;5.244;2023-03-19T06:44:42;101200.0;;;15.23;58.27
61676;BME280;47574;52.090;5.244;2023-03-19T06:46:19;101205.0;;;15.13;58.37
61676;BME280;47574;52.090;5.244;2023-03-19T06:47:56;101214.0;;;15.08;58.67
61676;BME280;47574;52.090;5.244;2023-03-19T06:51:09;101218.0;;;15.17;58.14
61676;BME280;47574;52.090;5.244;2023-03-19T06:52:45;101218.0;;;15.18;58.38
61676;BME280;47574;52.090;5.244;2023-03-19T06:54:22;101222.0;;;15.11;58.68
61676;BME280;47574;52.090;5.244;2023-03-19T06:55:59;101219.0;;;14.97;58.98
61676;BME280;47574;52.090;5.244;2023-03-19T06:59:12;101224.0;;;14.66;59.12
61676;BME280;47574;52.090;5.244;2023-03-19T07:00:48;101222.0;;;15.04;58.58
61676;BME280;47574;52.090;5.244;2023-03-19T07:02:25;101227.0;;;14.64;59.39
61676;BME280;47574;52.090;5.244;2023-03-19T07:05:39;101224.0;;;14.55;59.35
61676;BME280;47574;52.090;5.244;2023-03-19T07:07:15;101233.0;;;14.61;59.44
61676;BME280;47574;52.090;5.244;2023-03-19T07:08:53;101230.0;;;15.02;58.74
61676;BME280;47574;52.090;5.244;2023-03-19T07:12:07;101238.0;;;14.8;59.15
61676;BME280;47574;52.090;5.244;2023-03-19T07:13:44;101237.0;;;14.67;59.52
61676;BME280;47574;52.090;5.244;2023-03-19T07:15:21;101237.0;;;15.05;58.79
61676;BME280;47574;52.090;5.244;2023-03-19T07:16:57;101241.0;;;14.87;59.03
61676;BME280;47574;52.090;5.244;2023-03-19T07:20:12;101244.0;;;14.96;58.76
61676;BME280;47574;52.090;5.244;2023-03-19T07:21:50;101241.0;;;15.1;58.57
61676;BME280;47574;52.090;5.244;2023-03-19T07:23:26;101252.0;;;14.56;59.17
61676;BME280;47574;52.090;5.244;2023-03-19T07:26:39;101260.0;;;14.65;59.08
61676;BME280;47574;52.090;5.244;2023-03-19T07:28:17;101261.0;;;14.7;59.03
61676;BME280;47574;52.090;5.244;2023-03-19T07:29:53;101269.0;;;14.53;59.39
61676;BME280;47574;52.090;5.244;2023-03-19T07:33:06;101271.0;;;14.23;60.15
61676;BME280;47574;52.090;5.244;2023-03-19T07:36:19;101272.0;;;14.32;60.37
61676;BME280;47574;52.090;5.244;2023-03-19T07:37:56;101277.0;;;14.42;60.2
61676;BME280;47574;52.090;5.244;2023-03-19T07:41:09;101273.0;;;14.64;60.09
61676;BME280;47574;52.090;5.244;2023-03-19T07:42:45;101280.0;;;14.56;59.93
61676;BME280;47574;52.090;5.244;2023-03-19T07:44:22;101276.0;;;14.73;59.43
61676;BME280;47574;52.090;5.244;2023-03-19T07:47:36;101282.0;;;14.83;59.43
61676;BME280;47574;52.090;5.244;2023-03-19T07:49:12;101288.0;;;14.41;59.92
61676;BME280;47574;52.090;5.244;2023-03-19T07:50:49;101288.0;;;14.5;59.52
61676;BME280;47574;52.090;5.244;2023-03-19T07:52:26;101288.0;;;14.61;59.43
61676;BME280;47574;52.090;5.244;2023-03-19T07:55:41;101289.0;;;14.98;59.32
61676;BME280;47574;52.090;5.244;2023-03-19T07:57:17;101282.0;;;15.23;58.75
61676;BME280;47574;52.090;5.244;2023-03-19T07:58:54;101287.0;;;14.89;58.9
61676;BME280;47574;52.090;5.244;2023-03-19T08:02:09;101289.0;;;14.79;59.08
61676;BME280;47574;52.090;5.244;2023-03-19T08:03:45;101292.0;;;15.08;58.7
61676;BME280;47574;52.090;5.244;2023-03-19T08:05:23;101293.0;;;15.02;58.77
61676;BME280;47574;52.090;5.244;2023-03-19T08:08:36;101296.0;;;15.03;59.03
61676;BME280;47574;52.090;5.244;2023-03-19T08:10:13;101303.0;;;14.82;59.3
61676;BME280;47574;52.090;5.244;2023-03-19T08:11:49;101305.0;;;15.31;58.53
61676;BME280;47574;52.090;5.244;2023-03-19T08:13:25;101301.0;;;14.89;58.7
61676;BME280;47574;52.090;5.244;2023-03-19T08:16:39;101301.0;;;15.09;57.96
61676;BME280;47574;52.090;5.244;2023-03-19T08:18:16;101300.0;;;15.28;57.92
61676;BME280;47574;52.090;5.244;2023-03-19T08:19:52;101306.0;;;15.22;57.46
61676;BME280;47574;52.090;5.244;2023-03-19T08:23:04;101311.0;;;14.94;58.2
61676;BME280;47574;52.090;5.244;2023-03-19T08:24:41;101308.0;;;15.42;57.59
61676;BME280;47574;52.090;5.244;2023-03-19T08:26:18;101309.0;;;15.47;56.88
61676;BME280;47574;52.090;5.244;2023-03-19T08:29:30;101312.0;;;14.99;57.87
61676;BME280;47574;52.090;5.244;2023-03-19T08:31:07;101313.0;;;15.16;57.95
61676;BME280;47574;52.090;5.244;2023-03-19T08:32:44;101317.0;;;15.35;57.59
61676;BME280;47574;52.090;5.244;2023-03-19T08:34:22;101316.0;;;14.86;58.19
61676;BME280;47574;52.090;5.244;2023-03-19T08:37:41;101314.0;;;15.05;57.85
61676;BME280;47574;52.090;5.244;2023-03-19T08:39:18;101320.0;;;15.2;57.96
61676;BME280;47574;52.090;5.244;2023-03-19T08:40:55;101327.0;;;15.42;57.55
61676;BME280;47574;52.090;5.244;2023-03-19T08:44:07;101324.0;;;15.67;56.74
61676;BME280;47574;52.090;5.244;2023-03-19T08:45:44;101328.0;;;14.89;58.17
61676;BME280;47574;52.090;5.244;2023-03-19T08:47:21;101333.0;;;15.19;58.16
61676;BME280;47574;52.090;5.244;2023-03-19T08:48:59;101336.0;;;15.15;58.07
61676;BME280;47574;52.090;5.244;2023-03-19T08:52:12;101339.0;;;15.2;57.75
61676;BME280;47574;52.090;5.244;2023-03-19T08:53:48;101340.0;;;15.19;57.81
61676;BME280;47574;52.090;5.244;2023-03-19T08:55:24;101346.0;;;14.68;58.86
61676;BME280;47574;52.090;5.244;2023-03-19T08:58:36;101345.0;;;14.37;60.1
61676;BME280;47574;52.090;5.244;2023-03-19T09:01:52;101356.0;;;15.03;58.21
61676;BME280;47574;52.090;5.244;2023-03-19T09:05:06;101355.0;;;15.12;58.72
61676;BME280;47574;52.090;5.244;2023-03-19T09:06:43;101358.0;;;15.37;58.18
61676;BME280;47574;52.090;5.244;2023-03-19T09:08:19;101361.0;;;15.26;57.97
61676;BME280;47574;52.090;5.244;2023-03-19T09:09:55;101359.0;;;15.51;57.83
61676;BME280;47574;52.090;5.244;2023-03-19T09:13:07;101359.0;;;15.54;57.53
61676;BME280;47574;52.090;5.244;2023-03-19T09:14:44;101358.0;;;15.36;57.79
61676;BME280;47574;52.090;5.244;2023-03-19T09:16:20;101362.0;;;15.38;57.77
61676;BME280;47574;52.090;5.244;2023-03-19T09:19:33;101366.0;;;15.52;57.2
61676;BME280;47574;52.090;5.244;2023-03-19T09:21:10;101370.0;;;15.55;57.33
61676;BME280;47574;52.090;5.244;2023-03-19T09:22:46;101373.0;;;15.26;57.89
61676;BME280;47574;52.090;5.244;2023-03-19T09:25:58;101370.0;;;15.45;57.47
61676;BME280;47574;52.090;5.244;2023-03-19T09:27:36;101371.0;;;15.53;57.04
61676;BME280;47574;52.090;5.244;2023-03-19T09:29:13;101371.0;;;15.51;57.79
61676;BME280;47574;52.090;5.244;2023-03-19T09:30:51;101370.0;;;15.55;57.17
61676;BME280;47574;52.090;5.244;2023-03-19T09:34:05;101378.0;;;15.36;58.02
61676;BME280;47574;52.090;5.244;2023-03-19T09:35:41;101384.0;;;15.65;57.64
61676;BME280;47574;52.090;5.244;2023-03-19T09:37:18;101383.0;;;15.37;57.83
61676;BME280;47574;52.090;5.244;2023-03-19T09:40:34;101389.0;;;15.41;57.98
61676;BME280;47574;52.090;5.244;2023-03-19T09:42:23;101390.0;;;15.36;57.92
61676;BME280;47574;52.090;5.244;2023-03-19T09:44:10;101389.0;;;15.08;58.75
61676;BME280;47574;52.090;5.244;2023-03-19T09:45:47;101393.0;;;15.12;58.88
61676;BME280;47574;52.090;5.244;2023-03-19T09:49:11;101394.0;;;15.42;58.08
61676;BME280;47574;52.090;5.244;2023-03-19T09:50:51;101396.0;;;15.5;58.57
61676;BME280;47574;52.090;5.244;2023-03-19T09:52:34;101403.0;;;15.52;58.12
61676;BME280;47574;52.090;5.244;2023-03-19T09:54:25;101402.0;;;15.06;58.97
61676;BME280;47574;52.090;5.244;2023-03-19T09:56:04;101408.0;;;15.37;58.49
61676;BME280;47574;52.090;5.244;2023-03-19T09:59:21;101410.0;;;15.28;58.38
61676;BME280;47574;52.090;5.244;2023-03-19T10:01:00;101415.0;;;14.97;59.05
61676;BME280;47574;52.090;5.244;2023-03-19T10:02:40;101417.0;;;15.39;58.26
61676;BME280;47574;52.090;5.244;2023-03-19T10:04:36;101416.0;;;15.62;57.78
61676;BME280;47574;52.090;5.244;2023-03-19T10:06:29;101421.0;;;15.6;58.03
61676;BME280;47574;52.090;5.244;2023-03-19T10:10:17;101419.0;;;15.15;58.53
61676;BME280;47574;52.090;5.244;2023-03-19T10:12:18;101421.0;;;15.58;58.16
61676;BME280;47574;52.090;5.244;2023-03-19T10:14:12;101423.0;;;15.42;58.21
61676;BME280;47574;52.090;5.244;2023-03-19T10:15:58;101427.0;;;15.42;58.03
61676;BME280;47574;52.090;5.244;2023-03-19T10:17:39;101428.0;;;15.62;57.64
61676;BME280;47574;52.090;5.244;2023-03-19T10:19:20;101424.0;;;15.66;58.09
61676;BME280;47574;52.090;5.244;2023-03-19T10:21:16;101424.0;;;15.87;57.76
61676;BME280;47574;52.090;5.244;2023-03-19T10:24:45;101430.0;;;15.77;57.5
61676;BME280;47574;52.090;5.244;2023-03-19T10:26:28;101433.0;;;15.7;57.25
61676;BME280;47574;52.090;5.244;2023-03-19T10:28:10;101438.0;;;15.58;57.96
61676;BME280;47574;52.090;5.244;2023-03-19T10:29:49;101442.0;;;15.52;58.2
61676;BME280;47574;52.090;5.244;2023-03-19T10:31:28;101436.0;;;15.36;58.98
61676;BME280;47574;52.090;5.244;2023-03-19T10:34:57;101437.0;;;15.69;58.26
61676;BME280;47574;52.090;5.244;2023-03-19T10:36:36;101432.0;;;15.75;57.78
61676;BME280;47574;52.090;5.244;2023-03-19T10:38:19;101434.0;;;15.53;57.99
61676;BME280;47574;52.090;5.244;2023-03-19T10:39:57;101437.0;;;15.11;59.23
61676;BME280;47574;52.090;5.244;2023-03-19T10:43:24;101447.0;;;15.38;58.66
61676;BME280;47574;52.090;5.244;2023-03-19T10:45:04;101443.0;;;15.55;58.85
61676;BME280;47574;52.090;5.244;2023-03-19T10:46:57;101445.0;;;15.42;58.05
61676;BME280;47574;52.090;5.244;2023-03-19T10:48:42;101449.0;;;15.26;58.85
61676;BME280;47574;52.090;5.244;2023-03-19T10:50:21;101455.0;;;15.17;58.82
61676;BME280;47574;52.090;5.244;2023-03-19T10:53:40;101456.0;;;15.31;58.67
61676;BME280;47574;52.090;5.244;2023-03-19T10:55:22;101463.0;;;15.55;58.07
61676;BME280;47574;52.090;5.244;2023-03-19T10:57:00;101462.0;;;15.52;58.17
61676;BME280;47574;52.090;5.244;2023-03-19T10:58:36;101464.0;;;15.44;58.12
61676;BME280;47574;52.090;5.244;2023-03-19T11:01:56;101467.0;;;15.53;58.05
61676;BME280;47574;52.090;5.244;2023-03-19T11:03:35;101470.0;;;15.25;58.57
61676;BME280;47574;52.090;5.244;2023-03-19T11:05:23;101478.0;;;15.35;58.87
61676;BME280;47574;52.090;5.244;2023-03-19T11:07:02;101482.0;;;15.66;58.37
61676;BME280;47574;52.090;5.244;2023-03-19T11:10:32;101484.0;;;15.09;59.24
61676;BME280;47574;52.090;5.244;2023-03-19T11:12:16;101484.0;;;14.99;59.67
61676;BME280;47574;52.090;5.244;2023-03-19T11:13:55;101485.0;;;15.43;58.68